createdAt,value
2024-04-18T00:11:19.034Z,19.0
2024-04-18T00:41:19.028Z,19.0
2024-04-18T01:11:18.533Z,18.9
2024-04-18T01:41:19.008Z,18.9
2024-04-18T02:11:19.019Z,18.8
2024-04-18T02:41:18.640Z,18.8
2024-04-18T03:11:19.044Z,18.8
2024-04-18T03:41:19.052Z,18.8
2024-04-18T04:11:18.821Z,18.7
2024-04-18T04:41:18.804Z,18.7
2024-04-18T05:11:19.054Z,19.2
2024-04-18T05:41:19.053Z,19.3
2024-04-18T06:11:19.015Z,19.3
2024-04-18T06:41:19.086Z,22.0
2024-04-18T07:11:19.110Z,20.7
2024-04-18T07:41:18.990Z,20.5
2024-04-18T08:11:19.634Z,20.4
2024-04-18T08:41:19.018Z,20.3
2024-04-18T09:11:19.406Z,20.3
2024-04-18T09:41:19.492Z,20.3
2024-04-18T10:11:19.327Z,20.0
2024-04-18T10:41:19.136Z,19.6
2024-04-18T11:11:19.249Z,19.6
2024-04-18T11:41:19.037Z,19.5
2024-04-18T12:11:19.003Z,19.4
2024-04-18T12:41:19.183Z,19.4
2024-04-18T13:11:19.309Z,19.3
2024-04-18T13:41:19.013Z,19.3
2024-04-18T14:11:18.996Z,19.3
2024-04-18T14:41:18.988Z,19.2
2024-04-18T15:11:19.114Z,19.0
2024-04-18T15:41:19.272Z,19.1
2024-04-18T16:11:19.154Z,19.1
2024-04-18T16:41:19.114Z,19.1
2024-04-18T17:11:18.964Z,19.0
2024-04-18T17:41:18.993Z,19.0
2024-04-18T18:11:18.978Z,19.0
2024-04-18T18:41:19.019Z,19.0
2024-04-18T19:11:19.044Z,18.9
2024-04-18T19:41:19.107Z,18.9
2024-04-18T20:11:18.766Z,18.9
2024-04-18T20:41:19.217Z,18.8
2024-04-18T21:11:19.021Z,18.8
2024-04-18T21:41:18.998Z,18.8
2024-04-18T22:11:18.787Z,18.8
2024-04-18T22:41:18.495Z,18.7
2024-04-18T23:11:19.018Z,18.7
2024-04-18T23:41:18.996Z,18.6
